createdAt,value
2019-05-13T00:00:34.919Z,3.23
2019-05-13T00:03:03.674Z,3.47
2019-05-13T00:05:29.774Z,3.40
2019-05-13T00:07:57.176Z,3.30
2019-05-13T00:10:24.591Z,3.70
2019-05-13T00:12:54.010Z,3.40
2019-05-13T00:15:19.390Z,3.33
2019-05-13T00:17:46.810Z,3.67
2019-05-13T00:20:14.386Z,3.17
2019-05-13T00:22:41.645Z,3.60
2019-05-13T00:25:09.045Z,3.60
2019-05-13T00:27:36.488Z,3.70
2019-05-13T00:30:04.381Z,3.90
2019-05-13T00:32:33.568Z,3.13
2019-05-13T00:34:58.732Z,3.60
2019-05-13T00:37:26.151Z,3.40
2019-05-13T00:39:54.315Z,3.53
2019-05-13T00:42:21.023Z,3.90
2019-05-13T00:44:48.423Z,3.43
2019-05-13T00:47:15.866Z,3.90
2019-05-13T00:49:43.735Z,3.70
2019-05-13T00:52:10.672Z,3.80
2019-05-13T00:54:38.093Z,3.40
2019-05-13T00:57:05.492Z,3.97
2019-05-13T00:59:33.935Z,3.53
2019-05-13T01:02:00.381Z,3.70
2019-05-13T01:04:27.811Z,3.70
2019-05-13T01:06:55.246Z,3.77
2019-05-13T01:09:23.705Z,4.77
2019-05-13T01:11:50.150Z,3.93
2019-05-13T01:14:17.569Z,4.20
2019-05-13T01:16:44.976Z,4.00
2019-05-13T01:19:14.357Z,3.90
2019-05-13T01:21:39.840Z,4.30
2019-05-13T01:24:07.252Z,4.17
2019-05-13T01:26:34.659Z,4.27
2019-05-13T01:29:04.069Z,3.83
2019-05-13T01:31:29.479Z,4.10
2019-05-13T01:33:56.893Z,4.30
2019-05-13T01:36:24.341Z,4.07
2019-05-13T01:38:53.939Z,4.60
2019-05-13T01:41:19.155Z,5.07
2019-05-13T01:43:46.561Z,4.20
2019-05-13T01:46:13.965Z,4.27
2019-05-13T01:48:43.596Z,4.07
2019-05-13T01:51:08.806Z,4.67
2019-05-13T01:53:36.231Z,4.33
2019-05-13T01:56:04.052Z,4.20
2019-05-13T01:58:31.084Z,4.80
2019-05-13T02:00:58.559Z,4.80
2019-05-13T02:03:25.958Z,4.23
2019-05-13T02:05:54.378Z,4.77
2019-05-13T02:08:20.784Z,5.00
2019-05-13T02:10:54.979Z,4.07
2019-05-13T02:13:24.381Z,4.30
2019-05-13T02:15:49.234Z,4.37
2019-05-13T02:18:16.645Z,4.47
2019-05-13T02:20:44.437Z,4.50
2019-05-13T02:23:11.467Z,4.13
2019-05-13T02:25:38.923Z,4.37
2019-05-13T02:28:09.620Z,4.50
2019-05-13T02:30:34.938Z,5.10
2019-05-13T02:33:02.948Z,4.30
2019-05-13T02:35:28.588Z,4.63
2019-05-13T02:38:14.636Z,4.50
2019-05-13T02:40:23.386Z,4.83
2019-05-13T02:42:52.268Z,4.53
2019-05-13T02:45:18.258Z,4.40
2019-05-13T02:47:45.675Z,4.50
2019-05-13T02:50:13.407Z,5.07
2019-05-13T02:52:43.930Z,4.70
2019-05-13T02:55:07.970Z,4.73
2019-05-13T02:57:35.351Z,5.60
2019-05-13T03:00:04.070Z,4.93
2019-05-13T03:02:32.736Z,4.67
2019-05-13T03:04:57.616Z,5.03
2019-05-13T03:07:25.039Z,4.77
2019-05-13T03:09:52.830Z,4.80
2019-05-13T03:12:22.811Z,5.47
2019-05-13T03:14:48.629Z,5.30
2019-05-13T03:17:26.435Z,4.60
2019-05-13T03:19:53.871Z,4.97
2019-05-13T03:22:22.397Z,5.07
2019-05-13T03:24:52.098Z,4.87
2019-05-13T03:27:20.034Z,4.93
2019-05-13T03:29:43.550Z,4.80
2019-05-13T03:32:16.251Z,5.50
2019-05-13T03:34:38.347Z,4.83
2019-05-13T03:37:07.642Z,5.20
2019-05-13T03:39:33.402Z,5.70
2019-05-13T03:42:02.941Z,5.63
2019-05-13T03:44:28.055Z,5.00
2019-05-13T03:46:55.468Z,5.17
2019-05-13T03:49:23.423Z,5.10
2019-05-13T03:51:53.387Z,5.47
2019-05-13T03:54:17.750Z,5.30
2019-05-13T03:56:45.191Z,5.23
2019-05-13T03:59:13.423Z,5.43
2019-05-13T04:01:42.532Z,5.43
2019-05-13T04:04:07.468Z,4.90
2019-05-13T04:06:34.908Z,4.90
2019-05-13T04:09:21.150Z,4.80
2019-05-13T04:11:32.842Z,5.13
2019-05-13T04:13:57.121Z,5.63
2019-05-13T04:16:24.539Z,5.00
2019-05-13T04:18:53.658Z,5.47
2019-05-13T04:21:22.585Z,5.80
2019-05-13T04:23:46.781Z,5.10
2019-05-13T04:26:15.103Z,4.97
2019-05-13T04:28:43.429Z,4.77
2019-05-13T04:31:09.055Z,4.90
2019-05-13T04:33:36.462Z,4.77
2019-05-13T04:36:03.910Z,5.17
2019-05-13T04:38:33.187Z,4.83
2019-05-13T04:40:58.763Z,4.80
2019-05-13T04:43:30.090Z,4.93
2019-05-13T04:45:53.640Z,5.10
2019-05-13T04:48:22.849Z,4.97
2019-05-13T04:50:48.442Z,5.17
2019-05-13T04:53:15.869Z,4.80
2019-05-13T04:55:43.289Z,5.37
2019-05-13T04:58:13.002Z,5.80
2019-05-13T05:00:42.642Z,5.13
2019-05-13T05:03:08.609Z,5.00
2019-05-13T05:06:06.270Z,4.90
2019-05-13T05:08:47.567Z,5.27
2019-05-13T05:11:32.288Z,4.97
2019-05-13T05:14:23.483Z,5.37
2019-05-13T05:17:28.115Z,4.37
2019-05-13T05:20:03.624Z,5.03
2019-05-13T05:22:37.632Z,4.40
2019-05-13T05:25:29.377Z,4.30
2019-05-13T05:28:11.048Z,4.50
2019-05-13T05:30:54.430Z,4.37
2019-05-13T05:33:27.484Z,4.53
2019-05-13T05:35:57.713Z,4.00
2019-05-13T05:38:33.391Z,4.40
2019-05-13T05:41:01.653Z,4.73
2019-05-13T05:43:28.234Z,4.20
2019-05-13T05:45:55.659Z,4.50
2019-05-13T05:48:23.067Z,4.70
2019-05-13T05:50:51.560Z,4.90
2019-05-13T05:53:17.915Z,4.77
2019-05-13T05:55:45.350Z,5.63
2019-05-13T05:58:12.781Z,5.10
2019-05-13T06:00:41.549Z,4.87
2019-05-13T06:03:07.607Z,4.27
2019-05-13T06:05:35.006Z,5.03
2019-05-13T06:08:02.420Z,4.93
2019-05-13T06:10:44.199Z,4.70
2019-05-13T06:12:57.278Z,5.00
2019-05-13T06:15:24.679Z,4.57
2019-05-13T06:17:52.091Z,4.40
2019-05-13T06:20:21.085Z,5.70
2019-05-13T06:22:46.921Z,4.53
2019-05-13T06:25:14.830Z,5.10
2019-05-13T06:27:42.265Z,4.80
2019-05-13T06:30:09.164Z,4.50
2019-05-13T06:32:36.597Z,4.40
2019-05-13T06:35:04.022Z,4.73
2019-05-13T06:37:32.195Z,4.63
2019-05-13T06:39:58.844Z,4.80
2019-05-13T06:42:26.249Z,4.20
2019-05-13T06:44:53.675Z,4.50
2019-05-13T06:47:21.949Z,4.70
2019-05-13T06:49:48.514Z,4.60
2019-05-13T06:52:15.937Z,5.00
2019-05-13T06:54:43.361Z,4.30
2019-05-13T06:57:13.428Z,4.37
2019-05-13T06:59:38.211Z,4.73
2019-05-13T07:02:05.646Z,4.50
2019-05-13T07:04:33.059Z,4.60
2019-05-13T07:07:09.971Z,4.40
2019-05-13T07:09:27.911Z,4.20
2019-05-13T07:11:57.042Z,4.57
2019-05-13T07:14:22.782Z,4.63
2019-05-13T07:16:52.360Z,4.33
2019-05-13T07:19:17.610Z,4.50
2019-05-13T07:21:45.036Z,4.60
2019-05-13T07:24:12.913Z,4.53
2019-05-13T07:26:41.895Z,4.03
2019-05-13T07:29:07.816Z,4.80
2019-05-13T07:31:34.711Z,4.27
2019-05-13T07:34:02.452Z,4.47
2019-05-13T07:36:31.597Z,3.80
2019-05-13T07:38:56.976Z,4.30
2019-05-13T07:41:35.735Z,4.20
2019-05-13T07:43:51.838Z,4.30
2019-05-13T07:46:21.628Z,3.70
2019-05-13T07:48:46.668Z,3.70
2019-05-13T07:51:14.088Z,3.40
2019-05-13T07:53:42.607Z,3.73
2019-05-13T07:56:08.924Z,3.77
2019-05-13T07:58:37.536Z,3.50
2019-05-13T08:01:03.797Z,3.20
2019-05-13T08:03:31.831Z,3.83
2019-05-13T08:05:58.624Z,4.03
2019-05-13T08:08:26.032Z,3.27
2019-05-13T08:10:53.452Z,3.47
2019-05-13T08:13:22.457Z,3.37
2019-05-13T08:15:54.394Z,2.97
2019-05-13T08:18:17.802Z,3.27
2019-05-13T08:20:45.237Z,3.80
2019-05-13T08:23:12.671Z,3.30
2019-05-13T08:25:42.464Z,2.97
2019-05-13T08:28:07.492Z,2.93
2019-05-13T08:30:34.912Z,3.70
2019-05-13T08:33:02.333Z,3.23
2019-05-13T08:35:31.449Z,3.10
2019-05-13T08:37:57.161Z,3.07
2019-05-13T08:40:24.599Z,3.03
2019-05-13T08:42:52.171Z,3.43
2019-05-13T08:45:19.463Z,2.80
2019-05-13T08:47:46.898Z,3.87
2019-05-13T08:50:14.326Z,3.10
2019-05-13T08:52:42.413Z,3.27
2019-05-13T08:55:12.712Z,3.10
2019-05-13T08:57:36.583Z,3.20
2019-05-13T09:00:06.728Z,2.70
2019-05-13T09:02:34.151Z,2.80
2019-05-13T09:05:02.315Z,2.20
2019-05-13T09:07:28.993Z,2.57
2019-05-13T09:09:56.423Z,3.00
2019-05-13T09:12:32.260Z,2.37
2019-05-13T09:14:52.438Z,2.20
2019-05-13T09:17:21.211Z,1.90
2019-05-13T09:19:46.101Z,1.90
2019-05-13T09:22:13.534Z,2.00
2019-05-13T09:24:42.466Z,1.97
2019-05-13T09:27:08.416Z,1.60
2019-05-13T09:29:35.848Z,2.47
2019-05-13T09:32:04.103Z,2.20
2019-05-13T09:34:32.762Z,1.70
2019-05-13T09:36:58.122Z,1.80
2019-05-13T09:39:25.571Z,1.77
2019-05-13T09:41:52.994Z,1.90
2019-05-13T09:44:21.777Z,1.63
2019-05-13T09:46:47.789Z,1.97
2019-05-13T09:49:19.850Z,2.30
2019-05-13T09:51:42.626Z,2.10
2019-05-13T09:54:11.722Z,2.13
2019-05-13T09:56:37.459Z,2.10
2019-05-13T09:59:04.896Z,1.70
2019-05-13T10:01:32.314Z,2.10
2019-05-13T10:04:02.570Z,2.00
2019-05-13T10:06:27.158Z,2.40
2019-05-13T10:08:54.557Z,2.80
2019-05-13T10:11:21.985Z,2.80
2019-05-13T10:13:51.474Z,2.13
2019-05-13T10:16:16.837Z,2.57
2019-05-13T10:18:44.240Z,2.33
2019-05-13T10:21:11.661Z,2.20
2019-05-13T10:23:41.634Z,2.67
2019-05-13T10:26:06.491Z,2.10
2019-05-13T10:28:33.913Z,2.27
2019-05-13T10:31:01.341Z,1.97
2019-05-13T10:33:31.609Z,2.40
2019-05-13T10:35:56.204Z,2.20
2019-05-13T10:38:27.608Z,2.17
2019-05-13T10:40:52.022Z,2.40
2019-05-13T10:43:31.117Z,2.17
2019-05-13T10:45:45.932Z,2.00
2019-05-13T10:48:13.611Z,2.00
2019-05-13T10:50:41.888Z,1.90
2019-05-13T10:53:08.206Z,2.00
2019-05-13T10:55:35.626Z,1.73
2019-05-13T10:58:03.041Z,1.90
2019-05-13T11:00:42.213Z,2.00
2019-05-13T11:03:07.077Z,2.30
2019-05-13T11:05:34.496Z,2.33
2019-05-13T11:08:02.174Z,1.93
2019-05-13T11:10:32.703Z,2.23
2019-05-13T11:13:01.556Z,2.13
2019-05-13T11:15:26.941Z,1.70
2019-05-13T11:17:54.372Z,1.70
2019-05-13T11:20:22.184Z,1.70
2019-05-13T11:22:51.831Z,2.03
2019-05-13T11:25:16.677Z,2.00
2019-05-13T11:27:44.075Z,1.70
2019-05-13T11:30:11.502Z,1.77
2019-05-13T11:32:38.924Z,2.10
2019-05-13T11:35:06.357Z,1.70
2019-05-13T11:37:33.774Z,2.03
2019-05-13T11:40:02.789Z,1.77
2019-05-13T11:42:28.587Z,1.90
2019-05-13T11:44:56.027Z,1.60
2019-05-13T11:47:25.157Z,1.70
2019-05-13T11:49:52.202Z,1.67
2019-05-13T11:52:18.298Z,1.80
2019-05-13T11:54:45.734Z,2.20
2019-05-13T11:57:13.110Z,1.67
2019-05-13T11:59:43.058Z,1.70
2019-05-13T12:02:14.723Z,1.60
2019-05-13T12:04:43.166Z,1.77
2019-05-13T12:07:12.938Z,1.90
2019-05-13T12:09:36.969Z,1.70
2019-05-13T12:12:04.392Z,1.90
2019-05-13T12:14:56.457Z,2.00
2019-05-13T12:17:02.099Z,1.80
2019-05-13T12:19:26.645Z,1.70
2019-05-13T12:21:54.418Z,1.60
2019-05-13T12:24:22.712Z,1.60
2019-05-13T12:26:52.825Z,2.10
2019-05-13T12:29:19.241Z,1.60
2019-05-13T12:31:43.751Z,1.80
2019-05-13T12:34:13.074Z,1.73
2019-05-13T12:36:38.584Z,1.83
2019-05-13T12:39:06.010Z,1.90
2019-05-13T12:41:33.417Z,1.70
2019-05-13T12:44:01.783Z,1.87
2019-05-13T12:46:28.241Z,1.70
2019-05-13T12:48:55.681Z,1.53
2019-05-13T12:51:23.076Z,1.43
2019-05-13T12:53:52.797Z,1.43
2019-05-13T12:56:17.940Z,2.00
2019-05-13T12:58:45.358Z,1.70
2019-05-13T13:01:13.024Z,1.90
2019-05-13T13:03:40.212Z,2.17
2019-05-13T13:06:32.460Z,1.90
2019-05-13T13:08:43.846Z,2.13
2019-05-13T13:11:02.534Z,2.00
2019-05-13T13:13:56.170Z,1.87
2019-05-13T13:15:57.307Z,1.90
2019-05-13T13:18:24.748Z,1.90
2019-05-13T13:21:00.178Z,2.10
2019-05-13T13:23:23.152Z,2.63
2019-05-13T13:25:53.098Z,2.30
2019-05-13T13:28:15.575Z,2.37
2019-05-13T13:30:44.193Z,2.47
2019-05-13T13:33:09.266Z,2.20
2019-05-13T13:35:36.670Z,2.30
2019-05-13T13:38:04.568Z,2.63
2019-05-13T13:40:34.718Z,2.03
2019-05-13T13:42:58.930Z,2.20
2019-05-13T13:45:26.350Z,2.43
2019-05-13T13:48:03.135Z,2.47
2019-05-13T13:50:24.649Z,2.57
2019-05-13T13:52:48.585Z,2.50
2019-05-13T13:55:16.448Z,2.67
2019-05-13T13:57:44.684Z,2.60
2019-05-13T14:00:33.030Z,2.17
2019-05-13T14:02:38.245Z,2.20
2019-05-13T14:05:05.921Z,2.27
2019-05-13T14:07:37.956Z,2.23
2019-05-13T14:10:05.989Z,2.40
2019-05-13T14:12:27.917Z,2.47
2019-05-13T14:14:55.328Z,2.60
2019-05-13T14:17:22.754Z,2.50
2019-05-13T14:19:52.375Z,2.57
2019-05-13T14:22:17.575Z,2.40
2019-05-13T14:24:45.002Z,2.57
2019-05-13T14:27:12.416Z,2.50
2019-05-13T14:29:48.704Z,2.30
2019-05-13T14:32:07.249Z,2.10
2019-05-13T14:34:34.706Z,2.40
2019-05-13T14:37:02.109Z,2.30
2019-05-13T14:39:31.351Z,2.30
2019-05-13T14:41:56.961Z,2.40
2019-05-13T14:44:24.402Z,2.20
2019-05-13T14:46:52.470Z,2.43
2019-05-13T14:49:19.267Z,2.20
2019-05-13T14:51:46.682Z,2.40
2019-05-13T14:54:14.089Z,2.40
2019-05-13T14:56:42.000Z,2.77
2019-05-13T14:59:11.504Z,2.10
2019-05-13T15:01:36.380Z,2.33
2019-05-13T15:04:03.818Z,2.40
2019-05-13T15:06:32.749Z,2.30
2019-05-13T15:08:58.702Z,2.30
2019-05-13T15:11:26.148Z,1.97
2019-05-13T15:13:53.558Z,2.30
2019-05-13T15:16:22.452Z,2.63
2019-05-13T15:18:48.383Z,2.53
2019-05-13T15:21:15.819Z,3.03
2019-05-13T15:23:43.228Z,2.27
2019-05-13T15:26:11.646Z,2.50
2019-05-13T15:28:38.097Z,2.67
2019-05-13T15:31:05.539Z,2.57
2019-05-13T15:33:33.055Z,2.70
2019-05-13T15:36:01.529Z,3.30
2019-05-13T15:38:27.832Z,3.17
2019-05-13T15:40:55.347Z,3.07
2019-05-13T15:43:22.672Z,2.80
2019-05-13T15:45:51.333Z,2.90
2019-05-13T15:48:17.556Z,2.60
2019-05-13T15:50:44.987Z,3.30
2019-05-13T15:53:12.936Z,3.27
2019-05-13T15:55:39.856Z,3.40
2019-05-13T15:58:07.303Z,3.20
2019-05-13T16:00:34.708Z,3.70
2019-05-13T16:03:02.121Z,3.20
2019-05-13T16:05:31.290Z,3.37
2019-05-13T16:07:56.947Z,2.97
2019-05-13T16:10:24.635Z,3.50
2019-05-13T16:12:52.103Z,3.27
2019-05-13T16:15:21.583Z,3.87
2019-05-13T16:17:46.942Z,3.03
2019-05-13T16:20:14.356Z,3.03
2019-05-13T16:22:42.134Z,3.20
2019-05-13T16:25:09.174Z,3.53
2019-05-13T16:27:36.598Z,3.50
2019-05-13T16:30:06.458Z,3.40
2019-05-13T16:32:33.891Z,3.43
2019-05-13T16:35:02.818Z,3.63
2019-05-13T16:37:31.232Z,3.33
2019-05-13T16:39:56.167Z,2.97
2019-05-13T16:42:23.617Z,3.30
2019-05-13T16:44:51.706Z,3.10
2019-05-13T16:47:18.439Z,2.83
2019-05-13T16:49:45.856Z,2.80
2019-05-13T16:52:13.283Z,2.90
2019-05-13T16:54:42.448Z,3.00
2019-05-13T16:57:08.169Z,2.70
2019-05-13T16:59:35.572Z,2.83
2019-05-13T17:02:02.992Z,3.10
2019-05-13T17:04:32.130Z,2.50
2019-05-13T17:06:57.834Z,2.80
2019-05-13T17:09:25.265Z,2.57
2019-05-13T17:11:52.679Z,2.50
2019-05-13T17:14:21.574Z,2.60
2019-05-13T17:16:47.531Z,2.87
2019-05-13T17:19:14.970Z,2.67
2019-05-13T17:21:42.399Z,2.73
2019-05-13T17:24:12.162Z,2.73
2019-05-13T17:26:37.230Z,3.40
2019-05-13T17:29:04.666Z,2.80
2019-05-13T17:31:32.524Z,3.00
2019-05-13T17:34:01.479Z,3.00
2019-05-13T17:36:26.941Z,2.40
2019-05-13T17:38:54.363Z,3.13
2019-05-13T17:41:21.765Z,2.47
2019-05-13T17:43:49.206Z,2.67
2019-05-13T17:46:16.615Z,3.03
2019-05-13T17:48:44.061Z,2.53
2019-05-13T17:51:13.148Z,2.77
2019-05-13T17:53:41.153Z,2.60
2019-05-13T17:56:06.298Z,2.63
2019-05-13T17:58:33.698Z,2.63
2019-05-13T18:01:01.872Z,2.73
2019-05-13T18:03:28.525Z,2.80
2019-05-13T18:05:55.954Z,2.50
2019-05-13T18:08:23.794Z,2.57
2019-05-13T18:10:51.413Z,2.60
2019-05-13T18:13:18.247Z,2.40
2019-05-13T18:15:45.728Z,2.60
2019-05-13T18:18:13.155Z,2.40
2019-05-13T18:20:41.516Z,2.50
2019-05-13T18:23:08.000Z,2.53
2019-05-13T18:25:35.409Z,2.63
2019-05-13T18:28:02.839Z,2.50
2019-05-13T18:30:31.817Z,2.80
2019-05-13T18:32:57.672Z,2.20
2019-05-13T18:35:25.094Z,2.20
2019-05-13T18:37:53.587Z,2.47
2019-05-13T18:40:21.793Z,2.67
2019-05-13T18:42:47.360Z,2.70
2019-05-13T18:45:14.760Z,2.00
2019-05-13T18:47:42.187Z,2.37
2019-05-13T18:50:11.529Z,2.33
2019-05-13T18:52:37.027Z,2.67
2019-05-13T18:55:06.862Z,2.83
2019-05-13T18:57:34.289Z,2.50
2019-05-13T19:00:02.189Z,2.67
2019-05-13T19:02:29.127Z,2.70
2019-05-13T19:04:56.562Z,2.67
2019-05-13T19:07:23.985Z,2.80
2019-05-13T19:09:52.285Z,2.73
2019-05-13T19:12:18.840Z,2.67
2019-05-13T19:14:46.260Z,3.00
2019-05-13T19:17:13.654Z,2.70
2019-05-13T19:19:42.231Z,2.37
2019-05-13T19:22:08.491Z,3.00
2019-05-13T19:24:35.892Z,2.60
2019-05-13T19:27:03.324Z,2.80
2019-05-13T19:29:31.762Z,2.63
2019-05-13T19:31:58.166Z,3.00
2019-05-13T19:34:25.562Z,2.57
2019-05-13T19:36:55.650Z,2.40
2019-05-13T19:39:23.074Z,2.70
2019-05-13T19:41:50.495Z,2.83
2019-05-13T19:44:17.933Z,3.77
2019-05-13T19:46:45.336Z,3.30
2019-05-13T19:49:28.274Z,3.77
2019-05-13T19:51:41.590Z,4.27
2019-05-13T19:54:07.604Z,4.00
2019-05-13T19:56:35.034Z,4.00
2019-05-13T19:59:02.454Z,3.97
2019-05-13T20:01:32.047Z,3.23
2019-05-13T20:03:57.296Z,2.93
2019-05-13T20:06:24.691Z,3.20
2019-05-13T20:08:52.104Z,3.07
2019-05-13T20:11:21.746Z,3.30
2019-05-13T20:13:46.918Z,2.70
2019-05-13T20:16:14.355Z,2.60
2019-05-13T20:18:41.752Z,3.03
2019-05-13T20:21:11.125Z,3.30
2019-05-13T20:23:36.595Z,3.30
2019-05-13T20:26:04.006Z,3.10
2019-05-13T20:28:31.817Z,3.23
2019-05-13T20:30:58.855Z,3.07
2019-05-13T20:33:26.259Z,2.90
2019-05-13T20:35:53.682Z,3.20
2019-05-13T20:38:22.153Z,3.20
2019-05-13T20:40:48.496Z,3.37
2019-05-13T20:43:15.930Z,3.30
2019-05-13T20:45:43.341Z,3.37
2019-05-13T20:48:11.968Z,3.63
2019-05-13T20:50:38.204Z,3.57
2019-05-13T20:53:05.629Z,4.27
2019-05-13T20:55:33.040Z,3.60
2019-05-13T20:58:01.427Z,3.90
2019-05-13T21:00:27.886Z,3.70
2019-05-13T21:02:55.322Z,3.80
2019-05-13T21:05:22.738Z,3.83
2019-05-13T21:07:51.592Z,3.90
2019-05-13T21:10:17.581Z,4.00
2019-05-13T21:12:45.025Z,4.20
2019-05-13T21:15:13.080Z,4.13
2019-05-13T21:17:39.882Z,3.70
2019-05-13T21:20:18.719Z,3.73
2019-05-13T21:22:34.799Z,4.37
2019-05-13T21:25:02.251Z,3.93
2019-05-13T21:27:31.444Z,4.03
2019-05-13T21:29:57.053Z,3.73
2019-05-13T21:32:24.462Z,4.10
2019-05-13T21:34:51.901Z,4.10
2019-05-13T21:37:19.314Z,3.97
2019-05-13T21:39:46.745Z,3.90
2019-05-13T21:42:14.175Z,4.10
2019-05-13T21:44:42.090Z,3.83
2019-05-13T21:47:11.298Z,4.07
2019-05-13T21:49:36.443Z,3.70
2019-05-13T21:52:03.881Z,3.90
2019-05-13T21:54:33.503Z,3.97
2019-05-13T21:56:58.733Z,4.00
2019-05-13T21:59:26.149Z,3.90
2019-05-13T22:01:53.579Z,3.60
2019-05-13T22:04:21.518Z,3.80
2019-05-13T22:06:48.414Z,4.33
2019-05-13T22:09:15.824Z,4.13
2019-05-13T22:11:43.257Z,4.27
2019-05-13T22:14:11.348Z,3.80
2019-05-13T22:16:38.100Z,3.93
2019-05-13T22:19:05.533Z,4.27
2019-05-13T22:21:32.935Z,4.60
2019-05-13T22:24:02.221Z,3.90
2019-05-13T22:26:27.779Z,4.03
2019-05-13T22:28:55.208Z,4.77
2019-05-13T22:31:22.611Z,4.17
2019-05-13T22:33:51.835Z,3.93
2019-05-13T22:36:17.463Z,3.67
2019-05-13T22:38:44.873Z,3.97
2019-05-13T22:41:12.293Z,3.93
2019-05-13T22:43:52.418Z,3.93
2019-05-13T22:46:07.111Z,3.70
2019-05-13T22:48:34.530Z,4.37
2019-05-13T22:51:01.935Z,4.00
2019-05-13T22:53:31.590Z,3.77
2019-05-13T22:55:56.769Z,3.90
2019-05-13T22:58:24.172Z,3.73
2019-05-13T23:00:51.832Z,3.80
2019-05-13T23:03:19.023Z,3.60
2019-05-13T23:05:46.451Z,3.67
2019-05-13T23:08:13.857Z,4.30
2019-05-13T23:10:42.104Z,3.77
2019-05-13T23:13:08.687Z,3.83
2019-05-13T23:15:36.122Z,3.50
2019-05-13T23:18:03.530Z,3.63
2019-05-13T23:20:31.804Z,3.73
2019-05-13T23:22:58.378Z,3.63
2019-05-13T23:25:25.802Z,3.97
2019-05-13T23:27:53.208Z,3.57
2019-05-13T23:30:20.642Z,3.67
2019-05-13T23:32:48.062Z,3.63
2019-05-13T23:35:15.457Z,3.67
2019-05-13T23:37:42.885Z,4.00
2019-05-13T23:40:11.872Z,3.70
2019-05-13T23:42:38.183Z,3.77
2019-05-13T23:45:05.597Z,3.83
2019-05-13T23:47:33.003Z,4.00
2019-05-13T23:50:01.925Z,3.70
2019-05-13T23:52:27.858Z,3.80
2019-05-13T23:54:55.268Z,4.10
2019-05-13T23:57:22.706Z,3.30
2019-05-13T23:59:51.112Z,3.30
